createdAt,value
2022-10-16T00:12:10.105Z,18.73
2022-10-16T00:42:12.858Z,16.83
2022-10-16T01:12:17.309Z,17.23
2022-10-16T01:42:20.306Z,13.70
2022-10-16T02:12:23.479Z,15.05
2022-10-16T02:42:27.403Z,17.43
2022-10-16T03:12:30.910Z,18.80
2022-10-16T03:42:34.764Z,18.67
2022-10-16T04:12:37.813Z,19.17
2022-10-16T04:42:40.900Z,18.53
2022-10-16T05:12:43.966Z,18.37
2022-10-16T05:42:47.216Z,18.70
2022-10-16T06:12:50.922Z,16.45
2022-10-16T06:42:54.339Z,19.40
2022-10-16T07:12:57.700Z,19.67
2022-10-16T07:43:01.275Z,15.77
2022-10-16T08:13:04.633Z,16.40
2022-10-16T08:43:07.819Z,14.10
2022-10-16T09:13:11.934Z,10.40
2022-10-16T09:43:15.033Z,9.07
2022-10-16T10:13:18.365Z,8.70
2022-10-16T10:43:22.249Z,7.33
2022-10-16T11:13:26.329Z,6.00
2022-10-16T11:43:32.385Z,5.27
2022-10-16T12:13:35.695Z,4.00
2022-10-16T12:43:39.151Z,6.65
2022-10-16T13:13:42.591Z,4.77
2022-10-16T13:43:46.252Z,4.50
2022-10-16T14:13:49.364Z,5.30
2022-10-16T14:43:52.706Z,5.23
2022-10-16T15:13:55.685Z,6.13
2022-10-16T15:43:58.780Z,5.40
2022-10-16T16:14:02.210Z,8.37
2022-10-16T16:44:05.454Z,6.87
2022-10-16T17:14:08.898Z,10.57
2022-10-16T17:44:12.058Z,9.70
2022-10-16T18:14:15.875Z,11.53
2022-10-16T19:14:26.589Z,13.97
2022-10-16T19:44:30.755Z,16.50
2022-10-16T20:14:34.640Z,15.85
2022-10-16T20:44:38.282Z,19.10
2022-10-16T21:14:51.066Z,18.47
2022-10-16T21:45:04.847Z,18.20
2022-10-16T22:15:08.331Z,18.37
2022-10-16T22:45:11.934Z,19.33
2022-10-16T23:15:15.771Z,22.23
2022-10-16T23:45:19.098Z,22.70
